SAV15P HESH-LICC
Flight info
| Callsign | SAV15P |
|---|---|
| Flight time | N/A |
| Altitude | 40000 |
| Route | SHM L677 CVO L617 MENKU/N0429F430 L617 NABSI M872 METRU UL81 LORNO DCT DODEL/N0405F190 Q72 PIMOR |
| Aircraft | C25C/M-SDE2E3FGHRWXY/LB1 |
Departure
| Time | 2026-04-29 13:38 |
|---|---|
| Airport | Sharm El Sheikh International Airport (HESH) |
Arrival
| Time | N/A |
|---|---|
| Airport | Catania-Fontanarossa Airport (LICC) |
| Time | Latitude | Longitude | Altitude | Speed | Heading |
|---|---|---|---|---|---|
| 2026-04-29 13:23 | 27.98755 | 34.39774 | 157 ft | 0 kts | 43° |
| 2026-04-29 13:30 | 27.98757 | 34.39787 | 167 ft | 6 kts | 121° |
| 2026-04-29 13:30 | 27.98666 | 34.39803 | 167 ft | 22 kts | 159° |
| 2026-04-29 13:30 | 27.98548 | 34.39723 | 167 ft | 21 kts | 224° |
| 2026-04-29 13:30 | 27.98444 | 34.39611 | 167 ft | 20 kts | 223° |
| 2026-04-29 13:31 | 27.98341 | 34.39503 | 167 ft | 20 kts | 222° |
| 2026-04-29 13:31 | 27.98236 | 34.39395 | 165 ft | 21 kts | 223° |
| 2026-04-29 13:31 | 27.98131 | 34.39286 | 165 ft | 20 kts | 222° |
| 2026-04-29 13:31 | 27.98028 | 34.39178 | 165 ft | 20 kts | 223° |
| 2026-04-29 13:32 | 27.97926 | 34.39072 | 165 ft | 20 kts | 223° |
| 2026-04-29 13:32 | 27.97826 | 34.38966 | 165 ft | 20 kts | 221° |
| 2026-04-29 13:32 | 27.97726 | 34.38863 | 165 ft | 19 kts | 223° |
| 2026-04-29 13:32 | 27.97627 | 34.38762 | 165 ft | 19 kts | 221° |
| 2026-04-29 13:33 | 27.97528 | 34.38662 | 165 ft | 19 kts | 222° |
| 2026-04-29 13:33 | 27.97432 | 34.38563 | 165 ft | 19 kts | 225° |
| 2026-04-29 13:33 | 27.97339 | 34.38463 | 165 ft | 18 kts | 221° |
| 2026-04-29 13:33 | 27.97246 | 34.38365 | 165 ft | 18 kts | 223° |
| 2026-04-29 13:34 | 27.97156 | 34.38265 | 165 ft | 18 kts | 229° |
| 2026-04-29 13:34 | 27.97064 | 34.38171 | 165 ft | 18 kts | 218° |
| 2026-04-29 13:34 | 27.96965 | 34.38152 | 167 ft | 16 kts | 142° |
| 2026-04-29 13:34 | 27.96895 | 34.38244 | 166 ft | 16 kts | 134° |
| 2026-04-29 13:35 | 27.96818 | 34.38323 | 167 ft | 14 kts | 129° |
| 2026-04-29 13:35 | 27.96754 | 34.38410 | 167 ft | 14 kts | 134° |
| 2026-04-29 13:35 | 27.96690 | 34.38492 | 167 ft | 14 kts | 130° |
| 2026-04-29 13:35 | 27.96621 | 34.38566 | 167 ft | 14 kts | 127° |
| 2026-04-29 13:36 | 27.96625 | 34.38648 | 167 ft | 12 kts | 26° |
| 2026-04-29 13:36 | 27.96637 | 34.38658 | 167 ft | 0 kts | 41° |
| 2026-04-29 13:37 | 27.96786 | 34.38804 | 169 ft | 68 kts | 43° |
| 2026-04-29 13:37 | 27.97332 | 34.39371 | 260 ft | 133 kts | 42° |
| 2026-04-29 13:38 | 27.98127 | 34.40163 | 512 ft | 178 kts | 36° |
| 2026-04-29 13:38 | 27.99140 | 34.40909 | 1607 ft | 161 kts | 23° |
| 2026-04-29 13:38 | 28.00163 | 34.41375 | 2486 ft | 170 kts | 34° |
| 2026-04-29 13:38 | 28.00934 | 34.42426 | 3313 ft | 175 kts | 33° |
| 2026-04-29 13:39 | 28.02030 | 34.42522 | 4140 ft | 163 kts | 341° |
| 2026-04-29 13:39 | 28.03117 | 34.42832 | 4992 ft | 176 kts | 39° |
| 2026-04-29 13:39 | 28.04117 | 34.43599 | 5911 ft | 175 kts | 13° |
| 2026-04-29 13:39 | 28.05260 | 34.44078 | 6903 ft | 177 kts | 25° |
| 2026-04-29 13:40 | 28.06362 | 34.44700 | 7890 ft | 178 kts | 20° |
| 2026-04-29 13:40 | 28.07488 | 34.45323 | 8941 ft | 180 kts | 25° |
| 2026-04-29 13:40 | 28.08597 | 34.45947 | 9982 ft | 176 kts | 22° |
| 2026-04-29 13:40 | 28.09601 | 34.46504 | 10820 ft | 175 kts | 22° |
| 2026-04-29 13:41 | 28.10693 | 34.47101 | 11666 ft | 179 kts | 21° |
| 2026-04-29 13:41 | 28.11901 | 34.47769 | 12000 ft | 212 kts | 22° |
| 2026-04-29 13:41 | 28.13398 | 34.48381 | 12004 ft | 244 kts | 4° |
| 2026-04-29 13:41 | 28.15193 | 34.48404 | 12008 ft | 272 kts | 358° |
| 2026-04-29 13:42 | 28.17178 | 34.48419 | 12006 ft | 297 kts | 359° |
| 2026-04-29 13:42 | 28.19325 | 34.48429 | 12006 ft | 318 kts | 358° |
| 2026-04-29 13:42 | 28.21302 | 34.48029 | 12003 ft | 331 kts | 336° |
| 2026-04-29 13:42 | 28.23280 | 34.46609 | 12003 ft | 344 kts | 318° |
| 2026-04-29 13:43 | 28.24657 | 34.44352 | 12006 ft | 356 kts | 297° |
| 2026-04-29 13:43 | 28.25718 | 34.41887 | 12014 ft | 338 kts | 297° |
| 2026-04-29 13:43 | 28.26686 | 34.39528 | 12017 ft | 322 kts | 295° |
| 2026-04-29 13:43 | 28.27615 | 34.37278 | 12014 ft | 309 kts | 297° |
| 2026-04-29 13:44 | 28.28539 | 34.35123 | 12009 ft | 298 kts | 296° |
| 2026-04-29 13:44 | 28.29437 | 34.33036 | 12005 ft | 291 kts | 297° |
| 2026-04-29 13:44 | 28.30303 | 34.30991 | 12016 ft | 284 kts | 296° |
| 2026-04-29 13:44 | 28.31149 | 34.28987 | 12010 ft | 279 kts | 297° |
| 2026-04-29 13:45 | 28.31983 | 34.27012 | 12013 ft | 275 kts | 296° |
| 2026-04-29 13:45 | 28.32810 | 34.25077 | 12008 ft | 271 kts | 297° |
| 2026-04-29 13:45 | 28.33617 | 34.23166 | 12017 ft | 267 kts | 297° |
| 2026-04-29 13:45 | 28.34416 | 34.21274 | 12021 ft | 265 kts | 297° |
| 2026-04-29 13:46 | 28.35213 | 34.19394 | 12033 ft | 264 kts | 297° |
| 2026-04-29 13:46 | 28.36007 | 34.17521 | 12026 ft | 263 kts | 297° |
| 2026-04-29 13:46 | 28.36795 | 34.15645 | 12028 ft | 263 kts | 296° |
| 2026-04-29 13:46 | 28.37590 | 34.13770 | 12023 ft | 264 kts | 297° |
| 2026-04-29 13:47 | 28.38381 | 34.11894 | 12037 ft | 264 kts | 297° |
| 2026-04-29 13:47 | 28.39179 | 34.10012 | 12035 ft | 265 kts | 296° |
| 2026-04-29 13:47 | 28.39959 | 34.08150 | 12031 ft | 265 kts | 297° |
| 2026-04-29 13:47 | 28.40755 | 34.06267 | 12035 ft | 265 kts | 297° |
| 2026-04-29 13:48 | 28.41552 | 34.04380 | 12028 ft | 265 kts | 296° |
| 2026-04-29 13:48 | 28.42344 | 34.02494 | 12033 ft | 265 kts | 297° |
| 2026-04-29 13:48 | 28.43140 | 34.00610 | 12038 ft | 265 kts | 297° |
| 2026-04-29 13:48 | 28.43933 | 33.98723 | 12038 ft | 264 kts | 297° |
| 2026-04-29 13:49 | 28.44726 | 33.96841 | 11989 ft | 264 kts | 297° |
| 2026-04-29 13:49 | 28.45521 | 33.94956 | 12365 ft | 264 kts | 296° |
| 2026-04-29 13:49 | 28.46268 | 33.93159 | 14199 ft | 243 kts | 296° |
| 2026-04-29 13:49 | 28.46998 | 33.91454 | 15671 ft | 237 kts | 296° |
| 2026-04-29 13:50 | 28.47697 | 33.89776 | 17102 ft | 232 kts | 296° |
| 2026-04-29 13:50 | 28.48384 | 33.88141 | 18381 ft | 227 kts | 295° |
| 2026-04-29 13:50 | 28.49059 | 33.86529 | 19209 ft | 224 kts | 296° |
| 2026-04-29 13:50 | 28.49727 | 33.84947 | 20109 ft | 219 kts | 296° |
| 2026-04-29 13:51 | 28.50375 | 33.83398 | 21097 ft | 212 kts | 296° |
| 2026-04-29 13:51 | 28.50999 | 33.81909 | 22016 ft | 208 kts | 294° |
| 2026-04-29 13:51 | 28.51613 | 33.80442 | 22897 ft | 202 kts | 295° |
| 2026-04-29 13:51 | 28.52208 | 33.79026 | 23814 ft | 196 kts | 295° |
| 2026-04-29 13:52 | 28.52789 | 33.77635 | 24512 ft | 197 kts | 295° |
| 2026-04-29 13:52 | 28.53410 | 33.76155 | 24695 ft | 218 kts | 296° |
| 2026-04-29 13:52 | 28.54066 | 33.74584 | 25315 ft | 220 kts | 295° |
| 2026-04-29 13:52 | 28.54718 | 33.73026 | 26092 ft | 218 kts | 296° |
| 2026-04-29 13:53 | 28.55368 | 33.71476 | 26847 ft | 216 kts | 296° |
| 2026-04-29 13:53 | 28.56002 | 33.69947 | 27585 ft | 213 kts | 297° |
| 2026-04-29 13:53 | 28.56635 | 33.68439 | 28316 ft | 211 kts | 296° |
| 2026-04-29 13:53 | 28.57258 | 33.66948 | 29158 ft | 207 kts | 296° |
| 2026-04-29 13:54 | 28.57870 | 33.65480 | 29963 ft | 204 kts | 296° |
| 2026-04-29 13:54 | 28.58480 | 33.64020 | 30615 ft | 204 kts | 296° |
| 2026-04-29 13:54 | 28.59091 | 33.62559 | 31235 ft | 205 kts | 296° |
| 2026-04-29 13:54 | 28.59700 | 33.61095 | 31826 ft | 205 kts | 295° |
| 2026-04-29 13:55 | 28.60318 | 33.59617 | 32323 ft | 207 kts | 295° |
| 2026-04-29 13:55 | 28.60932 | 33.58140 | 32899 ft | 207 kts | 294° |
| 2026-04-29 13:55 | 28.61550 | 33.56653 | 33507 ft | 208 kts | 294° |
| 2026-04-29 13:55 | 28.62173 | 33.55163 | 34102 ft | 209 kts | 293° |
| 2026-04-29 13:56 | 28.62843 | 33.53697 | 34636 ft | 209 kts | 298° |
| 2026-04-29 13:56 | 28.63652 | 33.52317 | 35164 ft | 210 kts | 302° |
| 2026-04-29 13:56 | 28.64576 | 33.51023 | 35685 ft | 211 kts | 302° |
| 2026-04-29 13:56 | 28.65488 | 33.49721 | 36203 ft | 210 kts | 302° |
| 2026-04-29 13:57 | 28.66409 | 33.48429 | 36724 ft | 210 kts | 301° |
| 2026-04-29 13:57 | 28.67320 | 33.47133 | 37238 ft | 209 kts | 301° |
| 2026-04-29 13:57 | 28.68239 | 33.45845 | 37752 ft | 210 kts | 301° |
| 2026-04-29 13:57 | 28.69151 | 33.44553 | 38274 ft | 209 kts | 300° |
| 2026-04-29 13:58 | 28.70052 | 33.43285 | 38729 ft | 208 kts | 300° |
| 2026-04-29 13:58 | 28.70963 | 33.41999 | 39076 ft | 209 kts | 300° |
| 2026-04-29 13:58 | 28.71874 | 33.40710 | 39439 ft | 209 kts | 300° |
| 2026-04-29 13:58 | 28.72786 | 33.39419 | 39793 ft | 210 kts | 300° |
| 2026-04-29 13:59 | 28.73721 | 33.38094 | 39914 ft | 221 kts | 300° |
| 2026-04-29 13:59 | 28.74711 | 33.36686 | 39953 ft | 235 kts | 301° |
| 2026-04-29 13:59 | 28.75767 | 33.35191 | 39958 ft | 250 kts | 301° |
| 2026-04-29 13:59 | 28.76888 | 33.33610 | 39962 ft | 264 kts | 301° |
| 2026-04-29 14:00 | 28.78068 | 33.31938 | 39967 ft | 277 kts | 302° |
| 2026-04-29 14:00 | 28.79307 | 33.30185 | 39965 ft | 290 kts | 302° |
| 2026-04-29 14:00 | 28.80600 | 33.28354 | 39965 ft | 303 kts | 302° |
| 2026-04-29 14:00 | 28.81947 | 33.26450 | 39964 ft | 314 kts | 302° |
| 2026-04-29 14:01 | 28.83340 | 33.24471 | 39957 ft | 325 kts | 303° |
| 2026-04-29 14:01 | 28.84780 | 33.22429 | 39956 ft | 335 kts | 302° |
| 2026-04-29 14:01 | 28.87680 | 33.18259 | 39971 ft | 351 kts | 301° |
| 2026-04-29 14:02 | 28.90850 | 33.13840 | 39957 ft | 367 kts | 303° |
| 2026-04-29 14:02 | 28.94080 | 33.09209 | 39951 ft | 378 kts | 303° |
| 2026-04-29 14:03 | 28.97393 | 33.04497 | 39956 ft | 387 kts | 303° |
| 2026-04-29 14:03 | 29.00794 | 32.99650 | 39953 ft | 395 kts | 303° |
| 2026-04-29 14:04 | 29.04252 | 32.94714 | 39956 ft | 401 kts | 303° |
| 2026-04-29 14:04 | 29.07755 | 32.89708 | 39953 ft | 405 kts | 303° |
| 2026-04-29 14:05 | 29.11291 | 32.84646 | 39954 ft | 409 kts | 303° |
| 2026-04-29 14:05 | 29.14851 | 32.79544 | 39959 ft | 412 kts | 303° |
| 2026-04-29 14:06 | 29.18430 | 32.74407 | 39958 ft | 414 kts | 303° |
| 2026-04-29 14:06 | 29.22025 | 32.69243 | 39964 ft | 416 kts | 303° |
| 2026-04-29 14:07 | 29.25632 | 32.64056 | 39967 ft | 417 kts | 303° |
| 2026-04-29 14:07 | 29.29246 | 32.58852 | 39970 ft | 418 kts | 303° |
| 2026-04-29 14:08 | 29.32838 | 32.53613 | 39971 ft | 418 kts | 303° |
| 2026-04-29 14:08 | 29.36266 | 32.48613 | 39984 ft | 400 kts | 303° |
| 2026-04-29 14:09 | 29.37930 | 32.46199 | 39977 ft | 383 kts | 303° |
| 2026-04-29 14:09 | 29.39550 | 32.43852 | 39981 ft | 368 kts | 303° |
| 2026-04-29 14:09 | 29.41099 | 32.41585 | 39961 ft | 355 kts | 302° |
| 2026-04-29 14:09 | 29.42592 | 32.39389 | 39966 ft | 343 kts | 302° |
| 2026-04-29 14:10 | 29.45452 | 32.35213 | 39969 ft | 324 kts | 302° |
| 2026-04-29 14:10 | 29.48160 | 32.31247 | 39964 ft | 308 kts | 302° |
| 2026-04-29 14:11 | 29.50742 | 32.27464 | 39973 ft | 295 kts | 302° |
| 2026-04-29 14:11 | 29.51993 | 32.25632 | 39976 ft | 289 kts | 302° |
| 2026-04-29 14:11 | 29.53219 | 32.23835 | 39980 ft | 283 kts | 302° |
| 2026-04-29 14:12 | 29.54423 | 32.22075 | 39981 ft | 276 kts | 302° |
| 2026-04-29 14:12 | 29.55590 | 32.20346 | 39973 ft | 272 kts | 302° |
| 2026-04-29 14:12 | 29.56750 | 32.18651 | 39975 ft | 267 kts | 301° |
| 2026-04-29 14:12 | 29.57889 | 32.16981 | 39982 ft | 264 kts | 301° |
| 2026-04-29 14:13 | 29.59008 | 32.15332 | 39979 ft | 260 kts | 301° |
| 2026-04-29 14:13 | 29.60114 | 32.13710 | 39982 ft | 256 kts | 301° |
| 2026-04-29 14:13 | 29.61205 | 32.12104 | 39978 ft | 253 kts | 301° |
| 2026-04-29 14:13 | 29.62282 | 32.10518 | 39983 ft | 250 kts | 301° |
| 2026-04-29 14:14 | 29.63348 | 32.08953 | 39981 ft | 247 kts | 301° |
| 2026-04-29 14:14 | 29.64398 | 32.07402 | 39996 ft | 244 kts | 301° |
| 2026-04-29 14:14 | 29.65440 | 32.05869 | 39987 ft | 242 kts | 301° |
| 2026-04-29 14:14 | 29.66472 | 32.04352 | 39984 ft | 240 kts | 301° |
| 2026-04-29 14:15 | 29.67490 | 32.02846 | 39989 ft | 237 kts | 301° |
| 2026-04-29 14:15 | 29.68503 | 32.01357 | 39985 ft | 235 kts | 301° |
| 2026-04-29 14:15 | 29.69503 | 31.99881 | 39990 ft | 233 kts | 301° |
| 2026-04-29 14:15 | 29.70482 | 31.98434 | 39986 ft | 231 kts | 301° |
| 2026-04-29 14:16 | 29.71470 | 31.96980 | 39986 ft | 230 kts | 301° |
| 2026-04-29 14:16 | 29.72446 | 31.95534 | 39991 ft | 228 kts | 301° |
| 2026-04-29 14:16 | 29.73418 | 31.94100 | 39987 ft | 226 kts | 300° |
| 2026-04-29 14:16 | 29.74384 | 31.92675 | 39991 ft | 225 kts | 301° |
| 2026-04-29 14:17 | 29.75341 | 31.91257 | 40002 ft | 224 kts | 301° |
| 2026-04-29 14:17 | 29.76297 | 31.89844 | 39995 ft | 223 kts | 301° |
| 2026-04-29 14:17 | 29.77249 | 31.88439 | 39990 ft | 222 kts | 301° |
| 2026-04-29 14:17 | 29.78194 | 31.87035 | 39996 ft | 221 kts | 301° |
| 2026-04-29 14:18 | 29.79111 | 31.85622 | 39996 ft | 220 kts | 299° |
| 2026-04-29 14:18 | 29.80016 | 31.84209 | 40003 ft | 218 kts | 299° |
| 2026-04-29 14:18 | 29.80612 | 31.83280 | 40000 ft | 218 kts | 300° |
| 2026-04-29 14:18 | 29.81514 | 31.81886 | 40003 ft | 217 kts | 299° |
| 2026-04-29 14:19 | 29.82408 | 31.80490 | 40003 ft | 216 kts | 300° |
| 2026-04-29 14:19 | 29.83297 | 31.79104 | 40006 ft | 215 kts | 299° |
| 2026-04-29 14:19 | 29.84185 | 31.77724 | 40002 ft | 214 kts | 299° |
| 2026-04-29 14:19 | 29.85065 | 31.76348 | 40003 ft | 213 kts | 300° |
| 2026-04-29 14:20 | 29.85946 | 31.74975 | 40007 ft | 212 kts | 299° |
| 2026-04-29 14:20 | 29.86824 | 31.73609 | 40006 ft | 212 kts | 300° |
| 2026-04-29 14:20 | 29.87694 | 31.72246 | 40000 ft | 211 kts | 300° |
| 2026-04-29 14:20 | 29.88566 | 31.70890 | 40002 ft | 210 kts | 299° |
| 2026-04-29 14:21 | 29.89429 | 31.69540 | 40002 ft | 209 kts | 300° |
| 2026-04-29 14:21 | 29.90288 | 31.68195 | 40003 ft | 209 kts | 299° |
| 2026-04-29 14:21 | 29.91155 | 31.66847 | 40005 ft | 208 kts | 299° |
| 2026-04-29 14:21 | 29.92010 | 31.65507 | 40002 ft | 208 kts | 300° |
| 2026-04-29 14:22 | 29.92874 | 31.64180 | 40001 ft | 207 kts | 299° |
| 2026-04-29 14:22 | 29.93735 | 31.62855 | 40000 ft | 206 kts | 300° |
| 2026-04-29 14:22 | 29.94589 | 31.61531 | 39998 ft | 206 kts | 300° |
| 2026-04-29 14:22 | 29.95446 | 31.60209 | 39985 ft | 205 kts | 299° |
| 2026-04-29 14:23 | 29.96299 | 31.58891 | 39988 ft | 205 kts | 300° |
| 2026-04-29 14:23 | 29.97145 | 31.57576 | 39984 ft | 204 kts | 300° |
| 2026-04-29 14:23 | 29.97955 | 31.56330 | 39986 ft | 204 kts | 299° |
| 2026-04-29 14:23 | 29.98803 | 31.55015 | 39985 ft | 204 kts | 300° |
| 2026-04-29 14:24 | 29.99646 | 31.53708 | 39985 ft | 203 kts | 299° |
| 2026-04-29 14:24 | 30.00491 | 31.52405 | 39985 ft | 202 kts | 299° |
| 2026-04-29 14:24 | 30.01328 | 31.51102 | 39992 ft | 202 kts | 300° |
| 2026-04-29 14:24 | 30.02166 | 31.49803 | 39990 ft | 201 kts | 299° |
| 2026-04-29 14:25 | 30.03005 | 31.48507 | 39989 ft | 201 kts | 300° |
| 2026-04-29 14:25 | 30.03837 | 31.47210 | 39988 ft | 201 kts | 300° |
| 2026-04-29 14:25 | 30.04664 | 31.45933 | 39987 ft | 201 kts | 299° |
| 2026-04-29 14:25 | 30.05498 | 31.44638 | 39986 ft | 201 kts | 300° |
| 2026-04-29 14:26 | 30.06341 | 31.43325 | 39985 ft | 201 kts | 300° |
| 2026-04-29 14:26 | 30.07176 | 31.42034 | 39984 ft | 201 kts | 299° |
| 2026-04-29 14:26 | 30.07996 | 31.40757 | 39984 ft | 201 kts | 300° |
| 2026-04-29 14:26 | 30.08832 | 31.39468 | 39983 ft | 201 kts | 301° |
| 2026-04-29 14:27 | 30.09782 | 31.38263 | 39987 ft | 204 kts | 306° |
| 2026-04-29 14:27 | 30.10827 | 31.37139 | 39987 ft | 206 kts | 308° |
| 2026-04-29 14:27 | 30.11872 | 31.36014 | 39987 ft | 205 kts | 307° |
| 2026-04-29 14:28 | 30.13957 | 31.33774 | 39990 ft | 204 kts | 307° |
| 2026-04-29 14:28 | 30.15000 | 31.32657 | 39986 ft | 204 kts | 307° |
| 2026-04-29 14:28 | 30.16037 | 31.31539 | 39998 ft | 204 kts | 308° |
| 2026-04-29 14:28 | 30.17079 | 31.30422 | 39995 ft | 204 kts | 307° |
| 2026-04-29 14:29 | 30.18120 | 31.29308 | 39989 ft | 204 kts | 307° |
| 2026-04-29 14:29 | 30.19152 | 31.28193 | 39990 ft | 204 kts | 307° |
| 2026-04-29 14:29 | 30.20194 | 31.27079 | 39988 ft | 203 kts | 307° |
| 2026-04-29 14:29 | 30.21228 | 31.25965 | 39986 ft | 203 kts | 308° |
| 2026-04-29 14:30 | 30.22261 | 31.24854 | 39984 ft | 203 kts | 307° |
| 2026-04-29 14:30 | 30.23295 | 31.23746 | 39986 ft | 202 kts | 307° |
| 2026-04-29 14:30 | 30.24323 | 31.22635 | 39983 ft | 202 kts | 307° |
| 2026-04-29 14:30 | 30.25352 | 31.21531 | 39982 ft | 202 kts | 307° |
| 2026-04-29 14:31 | 30.26382 | 31.20423 | 39978 ft | 202 kts | 307° |
| 2026-04-29 14:31 | 30.27404 | 31.19315 | 39980 ft | 201 kts | 307° |
| 2026-04-29 14:31 | 30.28433 | 31.18215 | 39979 ft | 201 kts | 307° |
| 2026-04-29 14:31 | 30.29461 | 31.17096 | 39984 ft | 208 kts | 307° |
| 2026-04-29 14:32 | 30.30557 | 31.15919 | 40002 ft | 222 kts | 308° |
| 2026-04-29 14:32 | 30.31722 | 31.14662 | 40005 ft | 236 kts | 308° |
| 2026-04-29 14:32 | 30.32954 | 31.13334 | 40009 ft | 249 kts | 309° |
| 2026-04-29 14:32 | 30.34230 | 31.11955 | 40011 ft | 262 kts | 309° |
| 2026-04-29 14:33 | 30.35594 | 31.10483 | 40013 ft | 274 kts | 309° |
| 2026-04-29 14:33 | 30.37020 | 31.08948 | 40013 ft | 286 kts | 309° |
| 2026-04-29 14:33 | 30.38501 | 31.07346 | 40017 ft | 297 kts | 310° |
| 2026-04-29 14:34 | 30.41628 | 31.03970 | 40012 ft | 317 kts | 310° |
| 2026-04-29 14:34 | 30.44946 | 31.00379 | 40008 ft | 335 kts | 310° |
| 2026-04-29 14:35 | 30.48412 | 30.96649 | 40008 ft | 351 kts | 313° |
| 2026-04-29 14:35 | 30.50457 | 30.95006 | 40010 ft | 364 kts | 321° |
| 2026-04-29 14:35 | 30.52641 | 30.93397 | 40005 ft | 369 kts | 320° |
| 2026-04-29 14:36 | 30.57004 | 30.90112 | 40009 ft | 378 kts | 320° |
| 2026-04-29 14:36 | 30.61422 | 30.86755 | 40007 ft | 386 kts | 320° |
| 2026-04-29 14:37 | 30.65942 | 30.83300 | 40008 ft | 392 kts | 320° |
| 2026-04-29 14:37 | 30.70516 | 30.79789 | 40011 ft | 396 kts | 320° |
| 2026-04-29 14:38 | 30.75137 | 30.76232 | 40012 ft | 400 kts | 320° |
| 2026-04-29 14:38 | 30.79549 | 30.72373 | 40014 ft | 392 kts | 314° |
| 2026-04-29 14:39 | 30.83634 | 30.68268 | 40016 ft | 385 kts | 313° |
| 2026-04-29 14:39 | 30.87615 | 30.64168 | 40013 ft | 379 kts | 312° |
| 2026-04-29 14:40 | 30.91544 | 30.60113 | 40006 ft | 375 kts | 312° |
| 2026-04-29 14:40 | 30.95441 | 30.56099 | 40011 ft | 372 kts | 313° |
| 2026-04-29 14:41 | 30.99309 | 30.52118 | 40008 ft | 370 kts | 312° |
| 2026-04-29 14:41 | 31.03153 | 30.48162 | 40006 ft | 368 kts | 312° |
| 2026-04-29 14:42 | 31.06982 | 30.44225 | 40015 ft | 366 kts | 312° |
| 2026-04-29 14:42 | 31.10635 | 30.40152 | 40012 ft | 358 kts | 303° |
| 2026-04-29 14:42 | 31.11927 | 30.37702 | 40020 ft | 353 kts | 292° |
| 2026-04-29 14:43 | 31.12721 | 30.35010 | 40025 ft | 350 kts | 282° |
| 2026-04-29 14:43 | 31.13382 | 30.29396 | 40030 ft | 349 kts | 276° |
| 2026-04-29 14:44 | 31.13738 | 30.23750 | 40032 ft | 349 kts | 275° |
| 2026-04-29 14:44 | 31.14048 | 30.18109 | 40032 ft | 348 kts | 275° |
| 2026-04-29 14:45 | 31.14348 | 30.12507 | 40032 ft | 348 kts | 274° |
| 2026-04-29 14:45 | 31.14648 | 30.06835 | 40030 ft | 348 kts | 274° |
| 2026-04-29 14:46 | 31.14942 | 30.01238 | 40030 ft | 348 kts | 274° |
| 2026-04-29 14:46 | 31.16003 | 29.95769 | 40027 ft | 349 kts | 292° |
| 2026-04-29 14:47 | 31.18805 | 29.91089 | 40032 ft | 355 kts | 306° |
| 2026-04-29 14:47 | 31.22163 | 29.86828 | 40031 ft | 357 kts | 308° |
| 2026-04-29 14:48 | 31.25607 | 29.82635 | 40035 ft | 357 kts | 308° |
| 2026-04-29 14:48 | 31.29059 | 29.78449 | 40031 ft | 358 kts | 308° |
| 2026-04-29 14:49 | 31.32510 | 29.74251 | 40034 ft | 358 kts | 308° |